Home > Products > Valid Products > MTR

000
SAUS46 KLOX 280249
MTRSDB
METAR KSDB 280248Z AUTO 00000KT 10SM CLR 19/M02 A2999 RMK AO2 SLP109
T01891022 53007





000
SAUS46 KLOX 280231
MTRCQT
SPECI KCQT 280230Z AUTO 28007KT 10SM BKN013 17/13 A2986 RMK AO2
T01720133





000
SAUS46 KLOX 280156
MTR9L2
METAR K9L2 280156Z AUTO 24017G27KT 10SM CLR 28/04 A2979 RMK AO2 PK
WND 23029/0122 WSHFT 0043 SLP074 T02830039 $





000
SAUS46 KLOX 280106 COR
MTR9L2
SPECI K9L2 280101Z AUTO 24019G25KT 10SM CLR 30/03 A2978 RMK AO2
WSHFT 0043 $





000
SAUS46 KLOX 280056
MTR9L2
METAR K9L2 280056Z AUTO 25018G24KT 10SM CLR 31/02 A2977 RMK AO2
WSHFT 0042 SLP068 T03060022 $





000
SAUS46 KLOX 272356
MTR9L2
METAR K9L2 272356Z AUTO 17005KT 10SM CLR 31/M05 A2979 RMK AO2 SLP072
T03061050 10311 20250 58019 $





000
SAUS46 KLOX 272249
MTRSDB
METAR KSDB 272248Z AUTO 15013G23KT 10SM CLR 24/06 A2997 RMK AO2
SLP100 T02440056





000
SAUS46 KLOX 272249
MTRCQT
METAR KCQT 272247Z AUTO 27008KT 10SM CLR 22/13 A2984 RMK AO2 SLP104
T02170133





000
SAUS46 KLOX 272049
MTRCQT
METAR KCQT 272047Z AUTO VRB04KT 10SM CLR 22/13 A2987 RMK AO2 SLP114
T02220133 58018





000
SAUS46 KLOX 271950
MTRCQT
METAR KCQT 271947Z AUTO VRB03KT 10SM CLR 23/13 A2989 RMK AO2 SLP120
T02280133





000
SAUS46 KLOX 271856
MTR9L2
METAR K9L2 271856Z AUTO VRB04KT 10SM CLR 27/02 A2990 RMK AO2 SLP110
T02670022 $





000
SAUS46 KLOX 271756
MTR9L2
METAR K9L2 271756Z AUTO 00000KT 10SM CLR 25/04 A2992 RMK AO2 SLP116
T02500039 10250 20100 58009 $





000
SAUS46 KLOX 271746
MTRCQT
SPECI KCQT 271744Z AUTO 00000KT 10SM SCT022 20/13 A2992 RMK AO2
T02000128





000
SAUS46 KLOX 271457
MTR9L2
METAR K9L2 271456Z AUTO 17005KT 10SM CLR 16/04 A2994 RMK AO2 SLP129
T01610039 51010 $





000
SAUS46 KLOX 271449
MTRSDB
METAR KSDB 271448Z AUTO 36011G20KT 10SM CLR 16/07 A3003 RMK AO2
SLP127 T01610067 53004





000
SAUS46 KLOX 271448
MTRCQT
METAR KCQT 271447Z AUTO 00000KT 10SM OVC016 17/12 A2994 RMK AO2
SLP138 T01670122 50001





000
SAUS46 KLOX 271349
MTRSDB
METAR KSDB 271348Z AUTO 36009G16KT 10SM CLR 14/06 A3002 RMK AO2
SLP126 T01390061 $





000
SAUS46 KLOX 271301
MTR9L2
METAR K9L2 271256Z AUTO 32003KT 10SM CLR 10/02 A2993 RMK AO2 SLP124
T01000022 $





000
SAUS46 KLOX 271149
MTRSDB
METAR KSDB 271148Z AUTO 35013KT 10SM CLR 13/06 A3002 RMK AO2 SLP122
T01280056 10144 20122 56010 $





000
SAUS46 KLOX 271148
MTRCQT
METAR KCQT 271147Z AUTO 00000KT 10SM SCT013 15/12 A2994 RMK AO2
SLP137 T01500117 10161 20144 56010 $





000
SAUS46 KLOX 270948
MTRCQT
METAR KCQT 270947Z AUTO 00000KT 10SM CLR 15/12 A2996 RMK AO2 SLP142
T01500117 $





000
SAUS46 KLOX 270749
MTRSDB
METAR KSDB 270748Z AUTO VRB06KT 10SM CLR 14/05 A3006 RMK AO2 SLP135
T01390050 402110094





000
SAUS46 KLOX 270748
MTRCQT
METAR KCQT 270747Z AUTO 00000KT 10SM CLR 16/12 A2998 RMK AO2 SLP149
T01560122 402330144 $





000
SAUS46 KLOX 270549
MTRSDB
METAR KSDB 270548Z AUTO 34010G19KT 10SM CLR 14/05 A3007 RMK AO2
SLP141 T01390050 10200 20139 58001





000
SAUS46 KLOX 270448
MTRCQT
METAR KCQT 270447Z AUTO 00000KT 10SM CLR 16/11 A2998 RMK AO2 SLP149
T01610111 $





000
SAUS46 KLOX 270249
MTRCQT
METAR KCQT 270247Z AUTO 27004KT 10SM CLR 17/10 A2996 RMK AO2 SLP145
T01720100 55004 $





000
SAUS46 KLOX 270149
MTRCQT
METAR KCQT 270147Z AUTO 27003KT 10SM CLR 18/12 A2996 RMK AO2 SLP143
T01830117 $





000
SAUS46 KLOX 270058
MTR9L2
METAR K9L2 270056Z AUTO 28013G21KT 10SM CLR 27/03 A2989 RMK AO2
SLP111 T02670033 $





000
SAUS46 KLOX 270048
MTRCQT
METAR KCQT 270047Z AUTO VRB04KT 10SM CLR 20/12 A2996 RMK AO2 SLP145
T02000117 $





000
SAUS46 KLOX 262358
MTR9L2
METAR K9L2 262356Z AUTO 25012G19KT 10SM CLR 28/02 A2990 RMK AO2
SLP113 T02780022 10289 20233 56016 $





000
SAUS46 KLOX 262157
MTR9L2
METAR K9L2 262156Z AUTO 28011G14KT 10SM SCT065 SCT090 28/02 A2993
RMK AO2 SLP121 T02780022 $





000
SAUS46 KLOX 261858
MTR9L2
METAR K9L2 261856Z AUTO VRB03KT 10SM CLR 27/02 A2998 RMK AO2 SLP139
T02670017 $





000
SAUS46 KLOX 261849
MTRSDB
METAR KSDB 261848Z AUTO 34018G25KT 10SM CLR 18/05 A3012 RMK AO2
SLP160 T01830050





000
SAUS46 KLOX 261748
MTRCQT
METAR KCQT 261747Z AUTO VRB03KT 10SM FEW038 21/11 A3005 RMK AO2
SLP174 T02110106 10217 20144 58007 $





000
SAUS46 KLOX 261657
MTR9L2
METAR K9L2 261656Z AUTO 18004KT 10SM CLR 22/04 A3001 RMK AO2 SLP150
T02170044 $





000
SAUS46 KLOX 261649
MTRSDB
METAR KSDB 261648Z AUTO 35014G23KT 10SM CLR 16/07 A3012 RMK AO2
SLP164 T01610067





000
SAUS46 KLOX 261648
MTRCQT
METAR KCQT 261647Z AUTO 00000KT 10SM BKN029 20/11 A3006 RMK AO2
SLP177 T02000106 $





000
SAUS46 KLOX 261449
MTRSDB
METAR KSDB 261448Z AUTO 34016G24KT 10SM CLR 11/07 A3012 RMK AO2
SLP168 T01110072 51011





000
SAUS46 KLOX 261249
MTRSDB
METAR KSDB 261248Z AUTO 34019KT 10SM CLR 09/05 A3009 RMK AO2 PK WND
34031/1200 SLP158 T00940050





000
SAUS46 KLOX 261248
MTRCQT
METAR KCQT 261247Z AUTO 00000KT 9SM CLR 14/11 A3005 RMK AO2 SLP176
T01440106 $





000
SAUS46 KLOX 261157
MTR9L2
METAR K9L2 261156Z AUTO 20005KT 10SM CLR 12/04 A2998 RMK AO2 SLP144
T01220039 10178 20122 55002 $





000
SAUS46 KLOX 261058
MTR9L2
METAR K9L2 261056Z AUTO 18006KT 10SM CLR 13/04 A2998 RMK AO2 SLP142
T01330039 $





000
SAUS46 KLOX 261049
MTRSDB
METAR KSDB 261048Z AUTO 34012G25KT 310V020 10SM CLR 11/04 A3008 RMK
AO2 PK WND 33031/1018 SLP154 T01060044





000
SAUS46 KLOX 261048
MTRCQT
METAR KCQT 261047Z AUTO 00000KT 10SM CLR 15/11 A3004 RMK AO2 SLP170
T01500111 $





000
SAUS46 KLOX 260858
MTR9L2
METAR K9L2 260856Z AUTO 20004KT 10SM CLR 16/04 A2999 RMK AO2 SLP146
T01610039 55005 $





000
SAUS46 KLOX 260849
MTRSDB
METAR KSDB 260848Z AUTO 35020G33KT 10SM CLR 12/05 A3009 RMK AO2 PK
WND 34033/0844 SLP155 T01170050 56011





000
SAUS46 KLOX 260848
MTRCQT
METAR KCQT 260847Z AUTO 10003KT 10SM CLR 15/11 A3005 RMK AO2 SLP175
T01500111 58010 $





000
SAUS46 KLOX 260749
MTRCQT
METAR KCQT 260747Z AUTO 00000KT 10SM CLR 15/12 A3006 RMK AO2 SLP178
T01500117 402000133 $





000
SAUS46 KLOX 260548
MTRCQT
METAR KCQT 260547Z AUTO 00000KT 10SM CLR 16/12 A3008 RMK AO2 SLP185
T01560117 10200 20156 52005 $





000
SAUS46 KLOX 260458
MTR9L2
METAR K9L2 260456Z AUTO 25007KT 10SM CLR 17/04 A3001 RMK AO2 SLP151
T01670044 $





000
SAUS46 KLOX 260357
MTR9L2
METAR K9L2 260356Z AUTO 27011KT 10SM CLR 18/04 A2999 RMK AO2 SLP147
T01780039 $





000
SAUS46 KLOX 260149
MTRCQT
METAR KCQT 260147Z AUTO VRB04KT 10SM CLR 19/10 A3006 RMK AO2 SLP176
T01890100 $





000
SAUS46 KLOX 260049
MTRSDB
METAR KSDB 260048Z AUTO 34010G19KT 10SM BKN034 BKN041 14/04 A3011
RMK AO2 PK WND 32026/0023 SLP165 T01440044





000
SAUS46 KLOX 260048
MTRCQT
METAR KCQT 260047Z AUTO VRB05KT 10SM CLR 19/09 A3006 RMK AO2 SLP176
T01940094 $





000
SAUS46 KLOX 260003 COR
MTR9L2
METAR K9L2 252356Z AUTO 27014G20KT 10SM CLR 23/03 A2996 RMK AO2 PK
WND 26028/2307 SLP138 T02280028 10239 20200 55007 $





000
SAUS46 KLOX 260002
MTRSDB
SPECI KSDB 260001Z AUTO 09003KT 10SM SCT029 BKN039 13/05 A3011 RMK
AO2 T01330050





000
SAUS46 KLOX 252349
MTRCQT
METAR KCQT 252347Z AUTO VRB06KT 10SM CLR 19/07 A3005 RMK AO2 SLP176
T01940067 10200 20183 58009 $





000
SAUS46 KLOX 252302 COR
MTR9L2
METAR K9L2 252256Z AUTO 26012G20KT 10SM CLR 23/03 A2995 RMK AO2
SLP134 T02330028 $





000
SAUS46 KLOX 252042 COR
MTR9L2
SPECI K9L2 252036Z AUTO 24016G22KT 10SM TS BKN055 22/03 A2998 RMK
AO2 TSB32 $





000
SAUS46 KLOX 251849
MTRSDB
METAR KSDB 251848Z AUTO 33013G20KT 10SM FEW014 OVC045 11/05 A3012
RMK AO2 RAB1749E1758 SLP173 P0000 T01110050





000
SAUS46 KLOX 251848
MTRCQT
METAR KCQT 251847Z AUTO VRB04KT 10SM OVC055 18/09 A3010 RMK AO2
SLP190 T01830094 $





000
SAUS46 KLOX 251805
MTRSDB
SPECI KSDB 251804Z AUTO 34015G21KT 10SM SCT008 BKN045 OVC050 10/05
A3010 RMK AO2 RAB1749E1758 P0000 T01000050 $





000
SAUS46 KLOX 251802 COR
MTR9L2
METAR K9L2 251756Z AUTO 25009G16KT 10SM SCT040 21/04 A2999 RMK AO2
SLP147 T02060039 10217 20111 51003 $





000
SAUS46 KLOX 251749
MTRSDB
METAR KSDB 251748Z AUTO 34015G25KT 10SM BKN008 OVC050 09/05 A3010
RMK AO2 PK WND 34026/1714 CIG 005V011 SLP170 T00940050 10100 20072
52010 $





000
SAUS46 KLOX 251748
MTRCQT
METAR KCQT 251747Z AUTO VRB04KT 10SM FEW028 OVC070 18/10 A3009 RMK
AO2 SLP187 T01830100 10189 20133 51009 $





000
SAUS46 KLOX 251448
MTRCQT
METAR KCQT 251447Z AUTO VRB03KT 10SM BKN065 16/11 A3006 RMK AO2
SLP178 T01560111 53009 $





000
SAUS46 KLOX 251359
MTR9L2
METAR K9L2 251356Z AUTO 22016G21KT 10SM CLR 12/06 A2997 RMK AO2
SLP145 T01220056 $





000
SAUS46 KLOX 251300
MTR9L2
METAR K9L2 251256Z AUTO 21012KT 10SM CLR 11/06 A2996 RMK AO2 SLP140
T01110056 $





000
SAUS46 KLOX 251249
MTRSDB
METAR KSDB 251248Z AUTO 32008KT 10SM OVC010 08/04 A3004 RMK AO2 CIG
007V014 SLP145 T00830044 $





000
SAUS46 KLOX 251248
MTRCQT
METAR KCQT 251247Z AUTO 00000KT 10SM BKN043 BKN080 14/11 A3004 RMK
AO2 SLP171 T01440106 $





000
SAUS46 KLOX 251224
MTRSDB
SPECI KSDB 251223Z AUTO 30008KT 10SM BKN009 OVC015 08/05 A3004 RMK
AO2 T00780050 $





000
SAUS46 KLOX 251220
MTRSDB
SPECI KSDB 251219Z AUTO 30007KT 10SM SCT007 OVC015 08/05 A3004 RMK
AO2 T00780050 $





000
SAUS46 KLOX 251213
MTRSDB
SPECI KSDB 251212Z AUTO VRB03KT 3SM BR BKN007 OVC015 07/06 A3004 RMK
AO2 T00720056 $





000
SAUS46 KLOX 251204
MTRSDB
SPECI KSDB 251203Z AUTO 27007KT 220V320 1 1/4SM BR OVC007 07/05
A3004 RMK AO2 T00720050 $





000
SAUS46 KLOX 251201
MTRSDB
SPECI KSDB 251159Z AUTO 29008KT 2 1/2SM BR SCT004 OVC010 07/05 A3004
RMK AO2 T00720050 $





000
SAUS46 KLOX 251200
MTR9L2
METAR K9L2 251156Z AUTO 22013KT 10SM CLR 11/06 A2995 RMK AO2 SLP136
T01110056 10128 20111 53000 $





000
SAUS46 KLOX 251154
MTRSDB
SPECI KSDB 251152Z AUTO 28006KT 1SM BR SCT004 OVC011 07/05 A3004 RMK
AO2 T00720050 $





000
SAUS46 KLOX 251129
MTRSDB
SPECI KSDB 251128Z AUTO VRB05KT 1SM BR FEW004 OVC010 07/05 A3004 RMK
AO2 T00720050 $





000
SAUS46 KLOX 251118
MTRSDB
SPECI KSDB 251117Z AUTO VRB04KT 1/4SM FG SCT006 OVC012 07/05 A3004
RMK AO2 T00720050 $





000
SAUS46 KLOX 251106
MTRSDB
SPECI KSDB 251105Z AUTO VRB06KT 1/2SM FG OVC010 07/05 A3004 RMK AO2
T00720050 $





000
SAUS46 KLOX 251103
MTRSDB
SPECI KSDB 251101Z AUTO VRB04KT 1/4SM FG BKN009 OVC015 07/06 A3004
RMK AO2 T00720056 $





000
SAUS46 KLOX 251048
MTRCQT
METAR KCQT 251047Z AUTO 00000KT 10SM CLR 14/11 A3003 RMK AO2 SLP169
T01440111 $





000
SAUS46 KLOX 251010
MTRSDB
SPECI KSDB 251009Z AUTO VRB03KT 2 1/2SM BR FEW002 BKN021 07/04 A3004
RMK AO2 T00670044 $





000
SAUS46 KLOX 250949
MTRSDB
METAR KSDB 250948Z AUTO VRB04KT 10SM FEW021 08/04 A3004 RMK AO2
SLP143 T00830044 $





000
SAUS46 KLOX 250849
MTRSDB
METAR KSDB 250848Z AUTO 23004KT 10SM CLR 07/04 A3004 RMK AO2 SLP148
T00720044 58007 $





000
SAUS46 KLOX 250848
MTRCQT
METAR KCQT 250847Z AUTO 00000KT 10SM SCT040 15/11 A3004 RMK AO2
SLP171 T01500111 58005 $





000
SAUS46 KLOX 250826
MTRSDB
SPECI KSDB 250825Z AUTO 24006KT 10SM SCT014 BKN032 08/04 A3006 RMK
AO2 T00780039 $





000
SAUS46 KLOX 250749
MTRSDB
METAR KSDB 250748Z AUTO 19005KT 10SM OVC014 09/04 A3007 RMK AO2
SLP154 T00890039 401560067 $





000
SAUS46 KLOX 250702 COR
MTR9L2
METAR K9L2 250656Z AUTO 23019G25KT 10SM CLR 12/06 A2997 RMK AO2
SLP139 T01220056 $





000
SAUS46 KLOX 250649
MTRSDB
METAR KSDB 250648Z AUTO 19007KT 10SM BKN023 OVC034 09/04 A3007 RMK
AO2 SLP153 T00890044 $





000
SAUS46 KLOX 250648
MTRCQT
METAR KCQT 250647Z AUTO 00000KT 10SM BKN033 16/11 A3005 RMK AO2
SLP174 T01560106 $





000
SAUS46 KLOX 250611
MTRSDB
SPECI KSDB 250609Z AUTO 18010KT 10SM BKN026 BKN034 08/04 A3007 RMK
AO2 T00830039 $





000
SAUS46 KLOX 250600
MTR9L2
METAR K9L2 250556Z AUTO 23016KT 10SM CLR 13/06 A2997 RMK AO2 SLP140
T01330056 10217 20133 51010 $





000
SAUS46 KLOX 250548
MTRCQT
METAR KCQT 250547Z AUTO 00000KT 10SM CLR 16/11 A3005 RMK AO2 SLP176
T01560106 10200 20156 51011 $





    US Dept of Commerce
    National Oceanic and Atmospheric Administration
    National Weather Service
    1325 East West Highway
    Silver Spring, MD 20910
    Page Author: NWS Internet Services Team
Disclaimer
Information Quality
Credits
Glossary
Privacy Policy
Freedom of Information Act (FOIA)
About Us
Career Opportunities